createdAt,value
2022-08-02T00:00:41.719Z,21.52
2022-08-02T00:03:09.787Z,21.48
2022-08-02T00:05:40.225Z,21.51
2022-08-02T00:08:08.520Z,21.51
2022-08-02T00:10:36.575Z,21.42
2022-08-02T00:13:06.148Z,21.35
2022-08-02T00:15:34.205Z,21.22
2022-08-02T00:18:02.212Z,21.22
2022-08-02T00:20:30.454Z,21.32
2022-08-02T00:22:58.780Z,21.19
2022-08-02T00:25:26.894Z,21.15
2022-08-02T00:27:54.866Z,21.12
2022-08-02T00:30:24.831Z,21.09
2022-08-02T00:32:52.841Z,21.08
2022-08-02T00:35:21.007Z,21.12
2022-08-02T00:37:49.212Z,21.23
2022-08-02T00:40:17.190Z,21.15
2022-08-02T00:42:45.215Z,21.02
2022-08-02T00:45:13.266Z,21.03
2022-08-02T00:47:42.770Z,20.97
2022-08-02T00:50:11.357Z,20.89
2022-08-02T00:52:39.515Z,20.92
2022-08-02T00:55:08.406Z,20.88
2022-08-02T00:57:37.148Z,21.13
2022-08-02T01:00:07.479Z,21.03
2022-08-02T01:02:35.659Z,20.85
2022-08-02T01:05:05.541Z,20.81
2022-08-02T01:07:33.798Z,20.79
2022-08-02T01:10:01.977Z,20.74
2022-08-02T01:12:30.175Z,20.86
2022-08-02T01:15:01.600Z,20.86
2022-08-02T01:17:35.651Z,20.87
2022-08-02T01:20:12.837Z,20.82
2022-08-02T01:23:03.135Z,20.66
2022-08-02T01:25:51.783Z,20.68
2022-08-02T01:28:30.935Z,20.66
2022-08-02T01:31:03.775Z,20.69
2022-08-02T01:33:40.505Z,20.57
2022-08-02T01:36:12.861Z,20.57
2022-08-02T01:38:45.893Z,20.48
2022-08-02T01:41:19.321Z,20.42
2022-08-02T01:43:50.653Z,20.45
2022-08-02T01:46:20.194Z,20.37
2022-08-02T01:48:50.906Z,20.33
2022-08-02T01:51:41.141Z,20.32
2022-08-02T01:54:12.599Z,20.51
2022-08-02T01:56:43.021Z,20.42
2022-08-02T01:59:16.522Z,20.33
2022-08-02T02:01:45.493Z,20.30
2022-08-02T02:04:17.167Z,20.32
2022-08-02T02:06:46.546Z,20.39
2022-08-02T02:09:16.504Z,20.29
2022-08-02T02:12:12.290Z,20.22
2022-08-02T02:14:38.768Z,20.33
2022-08-02T02:17:08.020Z,20.34
2022-08-02T02:19:38.939Z,20.43
2022-08-02T02:22:07.091Z,20.31
2022-08-02T02:24:36.797Z,20.12
2022-08-02T02:27:09.039Z,19.90
2022-08-02T02:29:42.927Z,19.82
2022-08-02T02:32:11.880Z,19.94
2022-08-02T02:34:44.278Z,19.89
2022-08-02T02:37:17.274Z,19.90
2022-08-02T02:39:46.775Z,19.94
2022-08-02T02:42:17.792Z,19.87
2022-08-02T02:44:48.140Z,19.79
2022-08-02T02:47:18.011Z,19.87
2022-08-02T02:49:48.140Z,19.93
2022-08-02T02:52:17.455Z,19.97
2022-08-02T02:54:50.309Z,19.82
2022-08-02T02:57:19.162Z,19.83
2022-08-02T02:59:49.820Z,19.82
2022-08-02T03:02:19.238Z,19.72
2022-08-02T03:04:57.489Z,19.69
2022-08-02T03:07:27.831Z,19.69
2022-08-02T03:09:55.916Z,19.64
2022-08-02T03:12:31.736Z,19.69
2022-08-02T03:15:05.027Z,19.75
2022-08-02T03:17:41.608Z,19.68
2022-08-02T03:20:14.803Z,19.58
2022-08-02T03:22:43.490Z,19.45
2022-08-02T03:25:12.482Z,19.50
2022-08-02T03:27:41.148Z,19.40
2022-08-02T03:30:15.787Z,19.45
2022-08-02T03:32:46.595Z,19.42
2022-08-02T03:35:22.855Z,19.57
2022-08-02T03:37:57.301Z,19.41
2022-08-02T03:40:27.753Z,19.17
2022-08-02T03:42:56.059Z,18.92
2022-08-02T03:45:27.443Z,18.72
2022-08-02T03:47:58.733Z,18.68
2022-08-02T03:50:28.828Z,18.58
2022-08-02T03:52:57.875Z,18.59
2022-08-02T03:55:26.307Z,18.58
2022-08-02T03:57:54.353Z,18.52
2022-08-02T04:00:23.443Z,18.46
2022-08-02T04:02:53.152Z,18.49
2022-08-02T04:05:21.847Z,18.57
2022-08-02T04:08:05.943Z,18.62
2022-08-02T04:10:54.015Z,18.59
2022-08-02T04:13:27.480Z,18.50
2022-08-02T04:16:03.887Z,18.42
2022-08-02T04:18:40.823Z,18.40
2022-08-02T04:21:14.913Z,18.48
2022-08-02T04:23:45.028Z,18.60
2022-08-02T04:26:14.011Z,18.60
2022-08-02T04:28:44.523Z,18.60
2022-08-02T04:31:12.839Z,18.56
2022-08-02T04:33:42.553Z,18.57
2022-08-02T04:36:14.098Z,18.51
2022-08-02T04:38:42.455Z,18.56
2022-08-02T04:41:10.682Z,18.58
2022-08-02T04:43:38.728Z,18.68
2022-08-02T04:46:06.753Z,18.85
2022-08-02T04:48:34.863Z,18.90
2022-08-02T04:51:04.602Z,18.99
2022-08-02T04:53:33.635Z,19.01
2022-08-02T04:56:01.806Z,19.06
2022-08-02T04:58:45.076Z,19.17
2022-08-02T05:01:13.072Z,19.37
2022-08-02T05:03:41.387Z,19.55
2022-08-02T05:06:19.430Z,19.58
2022-08-02T05:08:52.721Z,19.72
2022-08-02T05:11:22.361Z,19.80
2022-08-02T05:14:02.162Z,19.85
2022-08-02T05:16:30.983Z,19.93
2022-08-02T05:19:00.312Z,20.09
2022-08-02T05:21:31.801Z,20.10
2022-08-02T05:24:00.178Z,20.07
2022-08-02T05:26:28.161Z,20.14
2022-08-02T05:28:56.203Z,20.17
2022-08-02T05:31:24.118Z,20.17
2022-08-02T05:33:52.146Z,20.15
2022-08-02T05:36:21.688Z,20.15
2022-08-02T05:38:52.898Z,20.21
2022-08-02T05:41:27.883Z,20.40
2022-08-02T05:43:55.871Z,20.57
2022-08-02T05:46:24.343Z,20.61
2022-08-02T05:48:52.499Z,20.58
2022-08-02T05:51:23.765Z,20.62
2022-08-02T05:54:01.800Z,20.68
2022-08-02T05:56:36.264Z,20.74
2022-08-02T05:59:08.662Z,20.77
2022-08-02T06:01:40.073Z,20.87
2022-08-02T06:04:10.499Z,20.93
2022-08-02T06:06:39.445Z,20.99
2022-08-02T06:09:10.916Z,21.12
2022-08-02T06:12:01.912Z,21.25
2022-08-02T06:14:33.870Z,21.41
2022-08-02T06:17:05.111Z,21.42
2022-08-02T06:19:36.673Z,21.50
2022-08-02T06:22:42.258Z,21.65
2022-08-02T06:25:11.845Z,21.92
2022-08-02T06:27:59.037Z,21.89
2022-08-02T06:30:27.718Z,21.96
2022-08-02T06:32:56.204Z,22.03
2022-08-02T06:35:27.103Z,22.01
2022-08-02T06:38:01.637Z,21.94
2022-08-02T06:40:37.115Z,21.99
2022-08-02T06:43:13.921Z,21.83
2022-08-02T06:45:42.581Z,21.84
2022-08-02T06:48:11.702Z,21.89
2022-08-02T06:50:41.913Z,21.97
2022-08-02T06:53:11.466Z,22.04
2022-08-02T06:55:43.285Z,21.98
2022-08-02T06:58:12.969Z,22.01
2022-08-02T07:00:42.134Z,22.12
2022-08-02T07:03:10.350Z,22.39
2022-08-02T07:05:38.785Z,22.34
2022-08-02T07:08:07.152Z,22.60
2022-08-02T07:10:35.243Z,22.58
2022-08-02T07:13:04.665Z,22.75
2022-08-02T07:15:33.650Z,22.93
2022-08-02T07:18:01.589Z,22.91
2022-08-02T07:20:29.707Z,22.73
2022-08-02T07:22:57.693Z,22.66
2022-08-02T07:25:26.043Z,22.83
2022-08-02T07:28:22.084Z,22.95
2022-08-02T07:30:52.689Z,23.03
2022-08-02T07:33:37.543Z,23.02
2022-08-02T07:36:16.628Z,22.97
2022-08-02T07:38:49.829Z,23.01
2022-08-02T07:41:17.871Z,23.05
2022-08-02T07:43:47.612Z,23.11
2022-08-02T07:46:15.756Z,23.35
2022-08-02T07:48:43.943Z,23.48
2022-08-02T07:51:15.505Z,23.51
2022-08-02T07:53:50.828Z,23.71
2022-08-02T07:56:20.367Z,23.95
2022-08-02T07:58:49.707Z,23.98
2022-08-02T08:01:18.803Z,23.84
2022-08-02T08:03:47.442Z,23.83
2022-08-02T08:06:16.320Z,23.84
2022-08-02T08:08:44.834Z,24.08
2022-08-02T08:11:13.172Z,24.23
2022-08-02T08:13:41.558Z,24.18
2022-08-02T08:16:11.248Z,24.26
2022-08-02T08:18:39.405Z,24.34
2022-08-02T08:21:08.000Z,24.35
2022-08-02T08:23:36.386Z,24.41
2022-08-02T08:26:05.327Z,24.46
2022-08-02T08:28:33.604Z,24.51
2022-08-02T08:31:01.907Z,24.51
2022-08-02T08:33:31.425Z,24.68
2022-08-02T08:35:59.692Z,24.69
2022-08-02T08:38:30.546Z,24.85
2022-08-02T08:40:58.798Z,24.90
2022-08-02T08:43:26.761Z,24.63
2022-08-02T08:45:57.398Z,24.76
2022-08-02T08:48:30.956Z,24.84
2022-08-02T08:51:09.201Z,24.93
2022-08-02T08:53:42.020Z,25.34
2022-08-02T08:56:16.280Z,25.07
2022-08-02T08:58:45.401Z,24.93
2022-08-02T09:01:15.429Z,25.02
2022-08-02T09:03:44.141Z,25.37
2022-08-02T09:06:13.827Z,25.73
2022-08-02T09:08:41.973Z,26.02
2022-08-02T09:11:16.080Z,26.19
2022-08-02T09:13:52.907Z,26.37
2022-08-02T09:16:32.523Z,26.42
2022-08-02T09:19:02.663Z,26.47
2022-08-02T09:21:40.025Z,26.47
2022-08-02T09:24:18.512Z,26.51
2022-08-02T09:26:47.760Z,26.95
2022-08-02T09:29:16.638Z,26.81
2022-08-02T09:31:49.466Z,26.85
2022-08-02T09:34:19.970Z,26.96
2022-08-02T09:36:54.406Z,27.41
2022-08-02T09:39:24.047Z,27.35
2022-08-02T09:41:53.364Z,27.54
2022-08-02T09:44:22.030Z,27.44
2022-08-02T09:46:50.356Z,28.19
2022-08-02T09:49:20.032Z,27.92
2022-08-02T09:51:53.690Z,28.20
2022-08-02T09:54:25.281Z,28.55
2022-08-02T09:56:58.975Z,28.68
2022-08-02T09:59:29.178Z,28.94
2022-08-02T10:02:02.573Z,29.52
2022-08-02T10:04:34.296Z,30.27
2022-08-02T10:07:12.084Z,32.00
2022-08-02T10:09:46.444Z,33.32
2022-08-02T10:12:16.635Z,34.17
2022-08-02T10:14:44.812Z,35.05
2022-08-02T10:17:13.594Z,36.20
2022-08-02T10:20:02.076Z,36.99
2022-08-02T10:22:35.120Z,37.42
2022-08-02T10:25:05.675Z,37.62
2022-08-02T10:28:02.599Z,37.50
2022-08-02T10:30:28.177Z,36.23
2022-08-02T10:32:58.815Z,37.13
2022-08-02T10:35:27.737Z,37.17
2022-08-02T10:38:03.748Z,36.53
2022-08-02T10:40:48.974Z,35.78
2022-08-02T10:43:45.229Z,35.23
2022-08-02T10:46:24.471Z,34.09
2022-08-02T10:52:20.649Z,34.97
2022-08-02T10:54:57.616Z,36.16
2022-08-02T10:57:27.370Z,36.78
2022-08-02T11:00:02.796Z,37.22
2022-08-02T11:02:43.057Z,37.56
2022-08-02T11:05:14.250Z,37.25
2022-08-02T11:07:47.658Z,37.33
2022-08-02T11:10:37.472Z,37.14
2022-08-02T11:13:08.760Z,36.79
2022-08-02T11:15:55.393Z,37.61
2022-08-02T11:18:24.553Z,38.66
2022-08-02T11:21:23.110Z,39.12
2022-08-02T11:23:52.209Z,39.19
2022-08-02T11:26:47.005Z,39.64
2022-08-02T11:29:15.864Z,38.23
2022-08-02T11:31:46.591Z,38.96
2022-08-02T11:34:37.273Z,39.73
2022-08-02T11:37:05.796Z,38.41
2022-08-02T11:39:34.543Z,36.92
2022-08-02T11:42:09.401Z,35.89
2022-08-02T11:44:42.951Z,36.83
2022-08-02T11:47:10.867Z,37.20
2022-08-02T11:49:39.045Z,36.50
2022-08-02T11:52:11.415Z,35.16
2022-08-02T11:54:41.483Z,35.23
2022-08-02T11:57:19.778Z,35.76
2022-08-02T11:59:50.375Z,35.49
2022-08-02T12:02:19.640Z,35.91
2022-08-02T12:04:54.686Z,36.59
2022-08-02T12:07:34.293Z,37.92
2022-08-02T12:10:07.010Z,38.27
2022-08-02T12:12:48.878Z,38.43
2022-08-02T12:15:31.092Z,38.93
2022-08-02T12:18:16.471Z,39.13
2022-08-02T12:20:45.024Z,37.38
2022-08-02T12:23:14.251Z,38.00
2022-08-02T12:25:42.464Z,37.91
2022-08-02T12:28:22.302Z,37.28
2022-08-02T12:30:55.894Z,37.76
2022-08-02T12:33:25.552Z,37.80
2022-08-02T12:35:54.438Z,38.12
2022-08-02T12:38:22.443Z,37.87
2022-08-02T12:40:51.208Z,36.97
2022-08-02T12:43:23.433Z,36.38
2022-08-02T12:45:54.254Z,35.87
2022-08-02T12:48:38.359Z,35.65
2022-08-02T12:51:22.721Z,36.40
2022-08-02T12:53:59.708Z,36.61
2022-08-02T12:56:30.228Z,36.07
2022-08-02T12:58:59.947Z,35.49
2022-08-02T13:01:29.467Z,35.37
2022-08-02T13:04:07.391Z,35.55
2022-08-02T13:06:44.395Z,36.03
2022-08-02T13:09:15.354Z,35.43
2022-08-02T13:11:44.402Z,36.30
2022-08-02T13:14:15.246Z,35.81
2022-08-02T13:16:46.265Z,35.33
2022-08-02T13:19:15.956Z,34.78
2022-08-02T13:22:01.952Z,35.17
2022-08-02T13:24:39.673Z,34.85
2022-08-02T13:27:10.824Z,35.24
2022-08-02T13:29:40.130Z,35.49
2022-08-02T13:32:10.759Z,35.47
2022-08-02T13:34:40.106Z,35.50
2022-08-02T13:37:08.387Z,35.24
2022-08-02T13:39:36.429Z,34.94
2022-08-02T13:42:05.834Z,35.04
2022-08-02T13:44:51.692Z,34.99
2022-08-02T13:47:26.729Z,35.00
2022-08-02T13:50:05.577Z,35.04
2022-08-02T13:52:37.401Z,34.44
2022-08-02T13:55:12.590Z,34.70
2022-08-02T13:57:46.063Z,34.97
2022-08-02T14:00:35.225Z,34.90
2022-08-02T14:03:07.197Z,34.24
2022-08-02T14:05:48.609Z,34.22
2022-08-02T14:08:20.488Z,34.06
2022-08-02T14:10:51.010Z,34.37
2022-08-02T14:13:19.285Z,34.34
2022-08-02T14:15:51.550Z,33.50
2022-08-02T14:18:20.374Z,33.40
2022-08-02T14:20:48.594Z,32.84
2022-08-02T14:23:17.031Z,32.86
2022-08-02T14:25:45.282Z,32.79
2022-08-02T14:28:15.977Z,32.82
2022-08-02T14:30:44.285Z,32.84
2022-08-02T14:33:13.952Z,32.78
2022-08-02T14:35:42.141Z,32.48
2022-08-02T14:38:10.026Z,32.25
2022-08-02T14:40:38.114Z,32.50
2022-08-02T14:43:06.118Z,32.32
2022-08-02T14:45:36.992Z,31.93
2022-08-02T14:48:14.053Z,32.44
2022-08-02T14:50:41.911Z,32.30
2022-08-02T14:53:12.809Z,32.38
2022-08-02T14:55:42.860Z,32.61
2022-08-02T14:58:11.385Z,32.15
2022-08-02T15:00:41.262Z,31.70
2022-08-02T15:03:10.828Z,31.83
2022-08-02T15:05:40.223Z,31.81
2022-08-02T15:08:08.292Z,31.66
2022-08-02T15:10:36.457Z,31.53
2022-08-02T15:13:04.847Z,31.27
2022-08-02T15:15:33.195Z,31.17
2022-08-02T15:18:11.537Z,31.19
2022-08-02T15:20:43.947Z,31.29
2022-08-02T15:23:37.270Z,31.17
2022-08-02T15:26:06.777Z,31.09
2022-08-02T15:28:34.988Z,31.28
2022-08-02T15:31:03.646Z,31.15
2022-08-02T15:33:32.439Z,31.09
2022-08-02T15:36:02.156Z,31.22
2022-08-02T15:38:30.224Z,31.08
2022-08-02T15:40:58.562Z,30.95
2022-08-02T15:43:27.880Z,31.04
2022-08-02T15:45:56.171Z,31.16
2022-08-02T15:48:24.313Z,30.97
2022-08-02T15:51:14.472Z,31.02
2022-08-02T15:53:43.092Z,31.04
2022-08-02T15:56:13.024Z,31.13
2022-08-02T15:58:44.490Z,31.05
2022-08-02T16:01:13.658Z,31.11
2022-08-02T16:03:41.651Z,31.13
2022-08-02T16:06:11.741Z,31.07
2022-08-02T16:08:44.625Z,31.08
2022-08-02T16:11:22.294Z,30.78
2022-08-02T16:13:58.950Z,30.58
2022-08-02T16:16:28.279Z,30.52
2022-08-02T16:18:57.478Z,30.57
2022-08-02T16:21:27.698Z,30.42
2022-08-02T16:23:58.720Z,30.42
2022-08-02T16:26:30.879Z,30.32
2022-08-02T16:28:59.844Z,30.44
2022-08-02T16:31:28.023Z,30.45
2022-08-02T16:33:57.381Z,30.44
2022-08-02T16:36:28.286Z,30.52
2022-08-02T16:38:56.921Z,30.26
2022-08-02T16:41:50.909Z,30.45
2022-08-02T16:44:14.531Z,30.54
2022-08-02T16:46:45.073Z,30.60
2022-08-02T16:50:04.659Z,30.50
2022-08-02T16:52:03.806Z,30.42
2022-08-02T16:54:32.772Z,30.43
2022-08-02T16:57:00.699Z,30.29
2022-08-02T16:59:34.037Z,30.20
2022-08-02T17:02:15.106Z,30.00
2022-08-02T17:04:46.552Z,30.03
2022-08-02T17:08:07.757Z,29.95
2022-08-02T17:10:09.120Z,29.84
2022-08-02T17:12:39.322Z,30.04
2022-08-02T17:16:17.128Z,29.91
2022-08-02T17:17:57.385Z,29.81
2022-08-02T17:20:25.658Z,29.67
2022-08-02T17:22:56.053Z,29.58
2022-08-02T17:25:31.924Z,29.55
2022-08-02T17:28:01.240Z,29.49
2022-08-02T17:30:29.923Z,29.53
2022-08-02T17:32:59.317Z,29.37
2022-08-02T17:35:43.346Z,29.23
2022-08-02T17:38:26.119Z,29.06
2022-08-02T17:40:55.713Z,28.97
2022-08-02T17:43:23.857Z,28.77
2022-08-02T17:46:02.181Z,28.73
2022-08-02T17:48:55.390Z,28.59
2022-08-02T17:52:14.855Z,28.49
2022-08-02T17:54:13.630Z,28.38
2022-08-02T17:56:42.571Z,28.35
2022-08-02T17:59:12.193Z,28.25
2022-08-02T18:01:52.830Z,28.09
2022-08-02T18:04:27.634Z,28.11
2022-08-02T18:06:58.546Z,28.12
2022-08-02T18:09:28.398Z,28.18
2022-08-02T18:11:58.566Z,28.41
2022-08-02T18:14:27.250Z,28.23
2022-08-02T18:16:55.569Z,28.04
2022-08-02T18:19:23.900Z,27.98
2022-08-02T18:22:11.528Z,27.91
2022-08-02T18:24:44.939Z,27.76
2022-08-02T18:27:14.012Z,27.64
2022-08-02T18:29:42.122Z,27.54
2022-08-02T18:32:11.795Z,27.43
2022-08-02T18:34:40.878Z,27.38
2022-08-02T18:37:15.761Z,27.27
2022-08-02T18:39:51.310Z,27.21
2022-08-02T18:42:21.446Z,27.14
2022-08-02T18:44:50.078Z,27.06
2022-08-02T18:47:18.426Z,27.02
2022-08-02T18:49:51.552Z,26.94
2022-08-02T18:52:31.067Z,26.84
2022-08-02T18:55:01.962Z,26.78
2022-08-02T18:58:03.202Z,26.74
2022-08-02T19:00:20.716Z,26.69
2022-08-02T19:02:54.709Z,26.60
2022-08-02T19:05:24.142Z,26.53
2022-08-02T19:08:12.841Z,26.47
2022-08-02T19:10:49.973Z,26.43
2022-08-02T19:13:18.439Z,26.31
2022-08-02T19:15:47.775Z,26.29
2022-08-02T19:18:15.978Z,26.25
2022-08-02T19:20:48.006Z,26.21
2022-08-02T19:23:17.338Z,26.18
2022-08-02T19:25:50.468Z,26.10
2022-08-02T19:28:25.841Z,26.03
2022-08-02T19:30:54.601Z,25.94
2022-08-02T19:33:54.759Z,25.89
2022-08-02T19:36:11.844Z,25.87
2022-08-02T19:38:44.001Z,25.90
2022-08-02T19:41:15.718Z,25.84
2022-08-02T19:44:22.978Z,25.80
2022-08-02T19:46:31.990Z,25.74
2022-08-02T19:49:01.374Z,25.68
2022-08-02T19:51:49.983Z,25.68
2022-08-02T19:54:35.919Z,25.75
2022-08-02T19:57:17.078Z,25.70
2022-08-02T19:59:48.018Z,25.69
2022-08-02T20:02:21.481Z,25.63
2022-08-02T20:04:53.017Z,25.56
2022-08-02T20:07:55.273Z,25.56
2022-08-02T20:10:11.851Z,25.51
2022-08-02T20:12:41.743Z,25.50
2022-08-02T20:15:14.802Z,25.46
2022-08-02T20:17:47.649Z,25.42
2022-08-02T20:20:17.875Z,25.39
2022-08-02T20:25:54.625Z,25.32
2022-08-02T20:28:25.630Z,25.28
2022-08-02T20:30:55.027Z,25.27
2022-08-02T20:33:23.343Z,25.21
2022-08-02T20:35:53.297Z,25.13
2022-08-02T20:38:24.775Z,25.05
2022-08-02T20:40:56.420Z,25.02
2022-08-02T20:43:31.168Z,24.97
2022-08-02T20:46:00.510Z,24.93
2022-08-02T20:48:29.846Z,24.93
2022-08-02T20:50:58.214Z,24.91
2022-08-02T20:53:30.095Z,24.93
2022-08-02T20:55:58.258Z,24.97
2022-08-02T20:58:28.178Z,24.97
2022-08-02T21:01:00.258Z,24.98
2022-08-02T21:03:39.377Z,24.95
2022-08-02T21:06:10.353Z,24.93
2022-08-02T21:08:38.562Z,24.87
2022-08-02T21:11:09.502Z,24.86
2022-08-02T21:13:46.789Z,24.87
2022-08-02T21:16:18.268Z,24.87
2022-08-02T21:18:48.883Z,24.79
2022-08-02T21:21:17.751Z,24.49
2022-08-02T21:23:49.033Z,24.39
2022-08-02T21:26:28.390Z,24.02
2022-08-02T21:29:03.630Z,23.63
2022-08-02T21:34:27.131Z,23.09
2022-08-02T21:36:55.851Z,22.88
2022-08-02T21:39:24.307Z,22.95
2022-08-02T21:41:53.059Z,23.19
2022-08-02T21:44:23.729Z,23.20
2022-08-02T21:46:53.996Z,23.31
2022-08-02T21:49:27.372Z,23.50
2022-08-02T21:52:11.794Z,23.52
2022-08-02T21:54:40.754Z,23.51
2022-08-02T21:57:15.283Z,23.54
2022-08-02T21:59:46.455Z,23.52
2022-08-02T22:02:15.532Z,23.53
2022-08-02T22:04:48.035Z,23.49
2022-08-02T22:07:17.503Z,23.40
2022-08-02T22:09:52.729Z,23.29
2022-08-02T22:12:21.934Z,23.22
2022-08-02T22:17:53.620Z,23.15
2022-08-02T22:20:29.280Z,23.09
2022-08-02T22:22:57.366Z,23.13
2022-08-02T22:25:35.957Z,23.09
2022-08-02T22:28:37.140Z,23.11
2022-08-02T22:30:56.976Z,23.10
2022-08-02T22:33:47.151Z,23.04
2022-08-02T22:36:28.915Z,22.95
2022-08-02T22:38:56.874Z,22.92
2022-08-02T22:41:25.425Z,22.71
2022-08-02T22:44:13.614Z,22.35
2022-08-02T22:46:44.326Z,22.07
2022-08-02T22:49:37.186Z,22.01
2022-08-02T22:52:00.242Z,22.29
2022-08-02T22:54:28.300Z,22.29
2022-08-02T22:56:57.486Z,22.40
2022-08-02T22:59:04.405Z,23.16
2022-08-02T22:59:06.416Z,25.36
2022-08-02T22:59:10.954Z,23.37
2022-08-02T22:59:38.675Z,22.52
2022-08-02T23:02:09.869Z,22.43
2022-08-02T23:04:40.448Z,22.56
2022-08-02T23:07:09.677Z,22.61
2022-08-02T23:09:38.935Z,22.64
2022-08-02T23:12:08.437Z,22.67
2022-08-02T23:14:40.496Z,22.61
2022-08-02T23:17:27.531Z,22.53
2022-08-02T23:19:55.558Z,22.55
2022-08-02T23:22:29.944Z,22.61
2022-08-02T23:25:01.571Z,22.59
2022-08-02T23:27:29.961Z,22.44
2022-08-02T23:29:57.826Z,22.44
2022-08-02T23:32:27.859Z,22.33
2022-08-02T23:34:56.663Z,22.15
2022-08-02T23:37:25.229Z,22.22
2022-08-02T23:39:53.320Z,22.27
2022-08-02T23:42:23.753Z,22.25
2022-08-02T23:44:51.911Z,22.13
2022-08-02T23:47:20.644Z,22.08
2022-08-02T23:49:50.099Z,22.10
2022-08-02T23:52:18.684Z,22.02
2022-08-02T23:54:47.124Z,21.88
2022-08-02T23:57:21.054Z,21.53
2022-08-02T23:59:51.190Z,21.58
